createdAt,value
2023-05-22T00:01:49.457Z,13.90
2023-05-22T00:04:22.151Z,13.80
2023-05-22T00:06:51.778Z,13.70
2023-05-22T00:09:21.090Z,13.70
2023-05-22T00:11:51.007Z,13.70
2023-05-22T00:14:22.454Z,13.60
2023-05-22T00:16:51.194Z,13.20
2023-05-22T00:19:23.219Z,12.90
2023-05-22T00:21:52.386Z,12.90
2023-05-22T00:24:22.743Z,12.90
2023-05-22T00:26:51.703Z,13.00
2023-05-22T00:29:20.909Z,12.90
2023-05-22T00:31:52.484Z,12.70
2023-05-22T00:34:22.990Z,12.70
2023-05-22T00:36:51.851Z,12.80
2023-05-22T00:39:20.849Z,12.80
2023-05-22T00:41:51.881Z,12.80
2023-05-22T00:44:24.760Z,12.60
2023-05-22T00:46:54.049Z,12.70
2023-05-22T00:49:24.493Z,12.70
2023-05-22T00:51:53.346Z,12.70
2023-05-22T00:54:22.620Z,12.60
2023-05-22T00:56:52.545Z,12.50
2023-05-22T00:59:21.496Z,12.60
2023-05-22T01:01:50.903Z,12.70
2023-05-22T01:04:25.401Z,12.70
2023-05-22T01:06:55.423Z,12.70
2023-05-22T01:09:24.353Z,12.60
2023-05-22T01:12:00.259Z,11.90
2023-05-22T01:14:42.402Z,11.80
2023-05-22T01:17:23.923Z,11.90
2023-05-22T01:20:14.683Z,11.80
2023-05-22T01:23:15.432Z,11.60
2023-05-22T01:26:20.808Z,11.50
2023-05-22T01:29:06.702Z,11.50
2023-05-22T01:31:41.155Z,11.30
2023-05-22T01:34:13.562Z,11.40
2023-05-22T01:36:46.273Z,11.10
2023-05-22T01:39:15.938Z,11.20
2023-05-22T01:41:44.781Z,11.20
2023-05-22T01:44:13.545Z,11.00
2023-05-22T01:46:43.911Z,10.90
2023-05-22T01:49:12.654Z,10.80
2023-05-22T01:51:53.590Z,10.70
2023-05-22T01:54:29.277Z,10.70
2023-05-22T01:57:03.224Z,11.10
2023-05-22T01:59:38.568Z,11.00
2023-05-22T02:02:12.299Z,11.00
2023-05-22T02:04:46.574Z,10.80
2023-05-22T02:07:19.088Z,10.70
2023-05-22T02:09:48.996Z,10.80
2023-05-22T02:12:18.118Z,10.60
2023-05-22T02:14:48.156Z,10.50
2023-05-22T02:17:19.334Z,10.60
2023-05-22T02:19:47.926Z,10.70
2023-05-22T02:22:17.081Z,11.20
2023-05-22T02:24:49.854Z,11.30
2023-05-22T02:27:18.918Z,10.70
2023-05-22T02:29:47.275Z,10.60
2023-05-22T02:32:18.018Z,10.80
2023-05-22T02:34:48.660Z,10.70
2023-05-22T02:37:18.324Z,10.30
2023-05-22T02:39:47.549Z,10.30
2023-05-22T02:42:16.597Z,10.20
2023-05-22T02:44:48.127Z,10.30
2023-05-22T02:47:19.768Z,10.40
2023-05-22T02:49:48.696Z,10.50
2023-05-22T02:52:19.816Z,10.40
2023-05-22T02:54:51.343Z,10.40
2023-05-22T02:57:22.403Z,10.30
2023-05-22T02:59:53.521Z,10.40
2023-05-22T03:02:28.817Z,10.30
2023-05-22T03:04:59.261Z,10.20
2023-05-22T03:07:31.896Z,10.20
2023-05-22T03:10:00.582Z,10.00
2023-05-22T03:12:29.158Z,10.00
2023-05-22T03:14:57.894Z,9.80
2023-05-22T03:17:44.388Z,9.70
2023-05-22T03:20:17.370Z,9.60
2023-05-22T03:22:46.913Z,9.70
2023-05-22T03:25:16.857Z,9.50
2023-05-22T03:27:46.594Z,9.70
2023-05-22T03:30:16.720Z,9.70
2023-05-22T03:32:56.496Z,9.70
2023-05-22T03:35:26.634Z,9.90
2023-05-22T03:37:56.452Z,9.40
2023-05-22T03:40:25.393Z,9.40
2023-05-22T03:42:54.089Z,9.40
2023-05-22T03:45:22.594Z,9.40
2023-05-22T03:47:51.629Z,9.80
2023-05-22T03:50:22.425Z,9.70
2023-05-22T03:52:50.754Z,9.60
2023-05-22T03:55:19.961Z,9.60
2023-05-22T03:57:48.601Z,9.60
2023-05-22T04:00:19.701Z,9.50
2023-05-22T04:02:52.077Z,9.40
2023-05-22T04:05:25.780Z,9.60
2023-05-22T04:07:55.687Z,9.70
2023-05-22T04:10:24.720Z,9.80
2023-05-22T04:12:53.761Z,9.80
2023-05-22T04:15:22.586Z,10.00
2023-05-22T04:17:54.019Z,10.10
2023-05-22T04:20:24.394Z,10.20
2023-05-22T04:22:54.912Z,10.40
2023-05-22T04:25:24.284Z,10.50
2023-05-22T04:27:55.869Z,10.60
2023-05-22T04:30:26.209Z,10.80
2023-05-22T04:32:56.623Z,10.80
2023-05-22T04:35:29.855Z,11.10
2023-05-22T04:37:58.637Z,11.20
2023-05-22T04:40:29.929Z,11.20
2023-05-22T04:43:00.098Z,11.30
2023-05-22T04:45:38.264Z,11.40
2023-05-22T04:48:08.396Z,11.60
2023-05-22T04:50:47.047Z,11.70
2023-05-22T04:53:19.380Z,11.80
2023-05-22T04:55:49.780Z,12.50
2023-05-22T04:58:22.421Z,13.00
2023-05-22T05:00:55.123Z,13.00
2023-05-22T05:03:24.275Z,13.30
2023-05-22T05:06:00.582Z,13.50
2023-05-22T05:08:29.128Z,14.00
2023-05-22T05:10:57.854Z,13.90
2023-05-22T05:13:27.520Z,13.50
2023-05-22T05:15:56.671Z,13.70
2023-05-22T05:18:25.799Z,14.00
2023-05-22T05:20:56.229Z,13.70
2023-05-22T05:23:25.585Z,13.60
2023-05-22T05:25:56.477Z,13.70
2023-05-22T05:28:26.284Z,14.10
2023-05-22T05:30:58.041Z,13.90
2023-05-22T05:33:46.509Z,13.80
2023-05-22T05:36:40.766Z,13.90
2023-05-22T05:39:09.858Z,14.10
2023-05-22T05:41:40.878Z,14.10
2023-05-22T05:44:11.859Z,14.20
2023-05-22T05:46:41.738Z,14.20
2023-05-22T05:49:13.760Z,14.40
2023-05-22T05:51:46.609Z,14.60
2023-05-22T05:54:17.824Z,14.80
2023-05-22T05:56:48.522Z,14.90
2023-05-22T05:59:18.033Z,15.00
2023-05-22T06:02:17.133Z,15.10
2023-05-22T06:04:48.865Z,15.30
2023-05-22T06:07:21.838Z,15.50
2023-05-22T06:09:54.191Z,15.70
2023-05-22T06:12:49.274Z,15.70
2023-05-22T06:15:18.912Z,15.90
2023-05-22T06:17:47.759Z,16.10
2023-05-22T06:20:17.197Z,16.40
2023-05-22T06:22:47.656Z,16.50
2023-05-22T06:25:16.745Z,16.70
2023-05-22T06:27:46.090Z,16.80
2023-05-22T06:30:22.442Z,16.90
2023-05-22T06:32:58.478Z,17.00
2023-05-22T06:35:27.493Z,17.00
2023-05-22T06:37:59.178Z,17.10
2023-05-22T06:40:28.864Z,17.10
2023-05-22T06:43:03.139Z,17.40
2023-05-22T06:45:55.121Z,17.50
2023-05-22T06:48:27.066Z,17.60
2023-05-22T06:51:06.995Z,17.60
2023-05-22T06:53:37.517Z,17.60
2023-05-22T06:56:10.200Z,17.70
2023-05-22T06:58:56.226Z,17.90
2023-05-22T07:01:33.593Z,18.00
2023-05-22T07:04:09.752Z,18.20
2023-05-22T07:06:49.007Z,18.10
2023-05-22T07:09:21.296Z,18.20
2023-05-22T07:11:51.318Z,18.20
2023-05-22T07:14:19.802Z,18.30
2023-05-22T07:16:48.959Z,18.50
2023-05-22T07:19:23.387Z,18.60
2023-05-22T07:21:52.352Z,18.60
2023-05-22T07:24:24.937Z,18.70
2023-05-22T07:26:54.512Z,18.90
2023-05-22T07:29:23.456Z,19.00
2023-05-22T07:31:55.063Z,19.10
2023-05-22T07:34:32.350Z,19.10
2023-05-22T07:37:01.566Z,19.10
2023-05-22T07:39:32.257Z,19.30
2023-05-22T07:42:02.017Z,19.10
2023-05-22T07:44:33.807Z,19.20
2023-05-22T07:47:02.189Z,19.40
2023-05-22T07:49:32.131Z,19.30
2023-05-22T07:52:01.540Z,19.50
2023-05-22T07:54:32.275Z,19.60
2023-05-22T07:57:03.377Z,19.50
2023-05-22T07:59:37.875Z,19.40
2023-05-22T08:02:08.914Z,19.80
2023-05-22T08:04:37.631Z,19.90
2023-05-22T08:07:06.682Z,20.00
2023-05-22T08:09:38.488Z,19.70
2023-05-22T08:12:09.735Z,20.10
2023-05-22T08:14:39.116Z,19.90
2023-05-22T08:17:07.726Z,20.20
2023-05-22T08:19:36.832Z,20.10
2023-05-22T08:22:05.402Z,20.20
2023-05-22T08:24:33.822Z,20.30
2023-05-22T08:27:04.558Z,20.20
2023-05-22T08:29:33.076Z,20.20
2023-05-22T08:32:05.149Z,20.30
2023-05-22T08:34:34.899Z,20.50
2023-05-22T08:37:05.089Z,20.60
2023-05-22T08:39:34.229Z,20.70
2023-05-22T08:42:04.627Z,20.50
2023-05-22T08:44:35.002Z,20.60
2023-05-22T08:47:04.600Z,20.60
2023-05-22T08:49:33.820Z,20.90
2023-05-22T08:52:09.247Z,20.80
2023-05-22T08:54:42.568Z,21.10
2023-05-22T08:57:13.673Z,21.20
2023-05-22T08:59:43.152Z,21.10
2023-05-22T09:02:17.218Z,21.00
2023-05-22T09:04:46.409Z,20.80
2023-05-22T09:07:15.439Z,20.90
2023-05-22T09:09:44.410Z,21.10
2023-05-22T09:12:15.471Z,21.30
2023-05-22T09:14:45.524Z,21.40
2023-05-22T09:17:17.833Z,21.30
2023-05-22T09:19:47.357Z,21.70
2023-05-22T09:22:17.318Z,21.70
2023-05-22T09:24:49.912Z,21.60
2023-05-22T09:27:24.657Z,21.60
2023-05-22T09:29:54.890Z,21.70
2023-05-22T09:32:23.952Z,21.60
2023-05-22T09:34:53.316Z,22.10
2023-05-22T09:37:24.700Z,22.30
2023-05-22T09:39:55.579Z,22.10
2023-05-22T09:42:27.510Z,22.20
2023-05-22T09:44:56.617Z,22.20
2023-05-22T09:47:25.639Z,22.20
2023-05-22T09:49:59.059Z,22.40
2023-05-22T09:52:30.049Z,22.60
2023-05-22T09:55:01.937Z,22.70
2023-05-22T09:57:35.089Z,22.80
2023-05-22T10:00:09.810Z,22.70
2023-05-22T10:02:44.247Z,23.10
2023-05-22T10:05:21.831Z,23.10
2023-05-22T10:07:52.138Z,23.00
2023-05-22T10:10:24.359Z,22.80
2023-05-22T10:12:58.868Z,23.50
2023-05-22T10:15:28.549Z,23.10
2023-05-22T10:17:58.075Z,23.20
2023-05-22T10:20:28.510Z,23.30
2023-05-22T10:22:58.418Z,23.30
2023-05-22T10:25:29.589Z,23.50
2023-05-22T10:28:03.699Z,23.90
2023-05-22T10:30:42.878Z,23.70
2023-05-22T10:33:44.514Z,23.70
2023-05-22T10:36:21.909Z,23.80
2023-05-22T10:39:07.551Z,23.80
2023-05-22T10:41:39.984Z,23.80
2023-05-22T10:44:10.705Z,24.20
2023-05-22T10:46:39.552Z,23.90
2023-05-22T10:49:08.889Z,24.00
2023-05-22T10:51:39.337Z,23.70
2023-05-22T10:54:08.738Z,23.80
2023-05-22T10:56:38.785Z,24.60
2023-05-22T10:59:10.431Z,24.60
2023-05-22T11:01:40.457Z,24.90
2023-05-22T11:04:19.221Z,24.20
2023-05-22T11:07:07.194Z,24.70
2023-05-22T11:09:42.979Z,24.80
2023-05-22T11:12:18.940Z,24.60
2023-05-22T11:15:07.669Z,25.00
2023-05-22T11:17:47.049Z,25.00
2023-05-22T11:20:23.138Z,24.60
2023-05-22T11:23:09.831Z,25.20
2023-05-22T11:25:42.701Z,25.20
2023-05-22T11:28:12.469Z,25.10
2023-05-22T11:30:44.913Z,25.00
2023-05-22T11:33:18.601Z,25.30
2023-05-22T11:35:57.553Z,26.00
2023-05-22T11:38:29.454Z,25.40
2023-05-22T11:40:59.825Z,26.40
2023-05-22T11:43:34.553Z,25.70
2023-05-22T11:46:07.999Z,25.70
2023-05-22T11:48:37.847Z,25.90
2023-05-22T11:51:07.042Z,26.20
2023-05-22T11:53:37.032Z,25.90
2023-05-22T11:56:07.179Z,25.50
2023-05-22T11:58:42.897Z,25.20
2023-05-22T12:01:14.077Z,25.60
2023-05-22T12:03:43.313Z,25.90
2023-05-22T12:06:13.438Z,25.70
2023-05-22T12:08:43.943Z,25.90
2023-05-22T12:11:14.046Z,26.60
2023-05-22T12:13:45.718Z,26.90
2023-05-22T12:16:23.177Z,26.10
2023-05-22T12:18:55.268Z,26.40
2023-05-22T12:21:24.046Z,26.50
2023-05-22T12:23:55.079Z,26.20
2023-05-22T12:26:23.798Z,26.50
2023-05-22T12:28:56.322Z,26.00
2023-05-22T12:31:26.868Z,27.10
2023-05-22T12:33:56.453Z,26.40
2023-05-22T12:36:35.098Z,27.10
2023-05-22T12:39:08.584Z,27.70
2023-05-22T12:41:36.960Z,27.20
2023-05-22T12:44:06.167Z,26.60
2023-05-22T12:46:39.218Z,26.90
2023-05-22T12:49:09.240Z,26.70
2023-05-22T12:51:40.658Z,27.30
2023-05-22T12:54:10.489Z,27.70
2023-05-22T12:56:39.565Z,26.60
2023-05-22T12:59:08.929Z,28.20
2023-05-22T13:01:39.044Z,28.90
2023-05-22T13:04:09.088Z,28.60
2023-05-22T13:06:39.920Z,28.30
2023-05-22T13:09:08.305Z,28.10
2023-05-22T13:11:37.741Z,29.30
2023-05-22T13:14:06.892Z,28.30
2023-05-22T13:16:36.159Z,29.20
2023-05-22T13:19:06.923Z,29.60
2023-05-22T13:21:35.986Z,28.20
2023-05-22T13:24:05.880Z,27.80
2023-05-22T13:26:35.007Z,28.40
2023-05-22T13:29:07.049Z,29.00
2023-05-22T13:31:38.282Z,29.20
2023-05-22T13:34:09.759Z,29.70
2023-05-22T13:36:38.686Z,29.60
2023-05-22T13:39:09.076Z,30.40
2023-05-22T13:41:38.434Z,28.70
2023-05-22T13:44:07.143Z,28.00
2023-05-22T13:46:36.707Z,27.40
2023-05-22T13:49:10.004Z,28.40
2023-05-22T13:51:39.247Z,28.00
2023-05-22T13:54:07.581Z,29.00
2023-05-22T13:56:36.147Z,29.00
2023-05-22T13:59:06.530Z,28.70
2023-05-22T14:01:36.746Z,29.40
2023-05-22T14:04:05.535Z,29.60
2023-05-22T14:06:36.359Z,30.20
2023-05-22T14:09:07.511Z,30.30
2023-05-22T14:11:37.398Z,29.60
2023-05-22T14:14:06.487Z,31.20
2023-05-22T14:16:36.166Z,30.90
2023-05-22T14:19:04.805Z,30.60
2023-05-22T14:21:34.903Z,30.60
2023-05-22T14:24:04.652Z,30.10
2023-05-22T14:26:33.525Z,31.00
2023-05-22T14:29:02.296Z,30.80
2023-05-22T14:31:31.302Z,32.70
2023-05-22T14:33:59.942Z,31.80
2023-05-22T14:36:28.777Z,32.00
2023-05-22T14:38:59.809Z,32.70
2023-05-22T14:41:28.581Z,32.10
2023-05-22T14:43:57.453Z,31.10
2023-05-22T14:46:26.617Z,32.30
2023-05-22T14:48:55.573Z,33.80
2023-05-22T14:51:24.194Z,34.00
2023-05-22T14:53:52.830Z,34.30
2023-05-22T14:56:23.496Z,31.40
2023-05-22T14:58:52.218Z,32.80
2023-05-22T15:01:21.240Z,32.80
2023-05-22T15:03:49.832Z,33.60
2023-05-22T15:06:18.406Z,33.40
2023-05-22T15:08:47.135Z,32.60
2023-05-22T15:11:15.895Z,33.00
2023-05-22T15:13:47.039Z,31.10
2023-05-22T15:16:16.342Z,33.00
2023-05-22T15:18:45.398Z,32.80
2023-05-22T15:21:14.126Z,32.70
2023-05-22T15:23:43.375Z,32.60
2023-05-22T15:26:12.565Z,32.60
2023-05-22T15:28:41.613Z,33.40
2023-05-22T15:31:13.157Z,34.00
2023-05-22T18:08:45.682Z,25.10
2023-05-22T18:11:14.834Z,24.40
2023-05-22T18:13:45.200Z,24.10
2023-05-22T18:16:14.225Z,24.00
2023-05-22T18:18:43.064Z,23.80
2023-05-22T18:21:11.967Z,23.60
2023-05-22T18:23:40.940Z,23.60
2023-05-22T18:26:10.053Z,23.50
2023-05-22T18:28:42.024Z,23.50
2023-05-22T18:31:12.714Z,23.30
2023-05-22T18:33:44.817Z,23.20
2023-05-22T18:36:14.888Z,22.80
2023-05-22T18:38:44.080Z,22.70
2023-05-22T18:41:19.224Z,22.50
2023-05-22T18:43:49.844Z,22.40
2023-05-22T18:46:21.796Z,22.30
2023-05-22T18:48:50.500Z,22.30
2023-05-22T18:51:20.319Z,22.10
2023-05-22T18:53:52.032Z,21.90
2023-05-22T18:56:20.661Z,21.60
2023-05-22T18:58:49.619Z,21.50
2023-05-22T19:01:20.075Z,21.30
2023-05-22T19:03:49.606Z,21.10
2023-05-22T19:06:20.232Z,20.70
2023-05-22T19:08:49.696Z,20.50
2023-05-22T19:11:18.389Z,20.30
2023-05-22T19:13:47.536Z,20.20
2023-05-22T19:16:16.603Z,20.20
2023-05-22T19:18:48.492Z,20.10
2023-05-22T19:21:17.314Z,19.90
2023-05-22T19:23:46.859Z,19.80
2023-05-22T19:26:15.588Z,19.70
2023-05-22T19:28:44.826Z,19.60
2023-05-22T19:31:13.578Z,19.60
2023-05-22T19:33:42.721Z,19.60
2023-05-22T19:36:13.511Z,19.50
2023-05-22T19:38:42.537Z,19.30
2023-05-22T19:41:14.722Z,19.20
2023-05-22T19:43:43.976Z,19.10
2023-05-22T19:46:12.854Z,19.00
2023-05-22T19:48:41.610Z,19.00
2023-05-22T19:51:11.020Z,19.00
2023-05-22T19:53:42.658Z,18.80
2023-05-22T19:56:11.858Z,18.90
2023-05-22T19:58:43.645Z,18.80
2023-05-22T20:01:13.449Z,18.80
2023-05-22T20:03:43.033Z,18.80
2023-05-22T20:06:13.399Z,18.70
2023-05-22T20:08:44.633Z,18.60
2023-05-22T20:11:13.274Z,18.50
2023-05-22T20:13:51.073Z,18.50
2023-05-22T20:16:20.216Z,18.50
2023-05-22T20:18:49.333Z,18.40
2023-05-22T20:21:18.979Z,18.30
2023-05-22T20:23:50.179Z,18.20
2023-05-22T20:26:19.936Z,18.20
2023-05-22T20:28:50.076Z,18.20
2023-05-22T20:31:19.749Z,18.10
2023-05-22T20:33:49.060Z,18.00
2023-05-22T20:36:18.840Z,18.10
2023-05-22T20:38:50.233Z,18.00
2023-05-22T20:41:19.653Z,18.00
2023-05-22T20:43:48.610Z,18.00
2023-05-22T20:46:17.503Z,18.00
2023-05-22T20:48:48.323Z,18.00
2023-05-22T20:51:18.781Z,17.90
2023-05-22T20:53:49.415Z,17.80
2023-05-22T20:56:18.679Z,17.70
2023-05-22T20:58:47.348Z,17.70
2023-05-22T21:01:16.166Z,17.60
2023-05-22T21:03:45.376Z,17.70
2023-05-22T21:06:14.489Z,17.70
2023-05-22T21:08:43.629Z,17.60
2023-05-22T21:11:13.872Z,17.50
2023-05-22T21:13:42.312Z,17.40
2023-05-22T21:16:13.842Z,17.30
2023-05-22T21:18:44.155Z,17.30
2023-05-22T21:21:14.129Z,17.30
2023-05-22T21:23:43.561Z,17.30
2023-05-22T21:26:14.027Z,17.30
2023-05-22T21:28:44.765Z,17.20
2023-05-22T21:31:13.416Z,17.10
2023-05-22T21:33:42.482Z,17.00
2023-05-22T21:36:11.575Z,17.00
2023-05-22T21:38:40.270Z,16.90
2023-05-22T21:41:09.062Z,16.80
2023-05-22T21:43:39.280Z,16.70
2023-05-22T21:46:08.173Z,16.50
2023-05-22T21:48:37.567Z,16.40
2023-05-22T21:51:07.210Z,16.40
2023-05-22T21:53:36.413Z,16.40
2023-05-22T21:56:05.364Z,16.50
2023-05-22T21:58:33.966Z,16.40
2023-05-22T22:01:04.575Z,16.40
2023-05-22T22:03:33.179Z,16.30
2023-05-22T22:06:02.090Z,16.20
2023-05-22T22:08:30.644Z,16.10
2023-05-22T22:10:59.747Z,16.00
2023-05-22T22:13:28.652Z,16.00
2023-05-22T22:15:59.613Z,16.00
2023-05-22T22:18:33.026Z,15.90
2023-05-22T22:21:02.568Z,15.80
2023-05-22T22:23:32.085Z,15.60
2023-05-22T22:26:00.461Z,15.50
2023-05-22T22:28:29.263Z,15.40
2023-05-22T22:30:57.583Z,15.40
2023-05-22T22:33:25.956Z,15.40
2023-05-22T22:35:56.464Z,15.40
2023-05-22T22:38:25.114Z,15.40
2023-05-22T22:40:54.130Z,15.40
2023-05-22T22:43:22.899Z,15.50
2023-05-22T22:45:51.412Z,15.50
2023-05-22T22:48:22.555Z,15.50
2023-05-22T22:50:52.787Z,15.60
2023-05-22T22:53:23.338Z,15.60
2023-05-22T22:55:57.541Z,15.50
2023-05-22T22:58:26.188Z,15.40
2023-05-22T23:00:55.261Z,15.30
2023-05-22T23:03:24.362Z,15.30
2023-05-22T23:05:52.964Z,15.30
2023-05-22T23:08:24.270Z,15.30
2023-05-22T23:10:54.598Z,15.20
2023-05-22T23:13:23.218Z,15.10
2023-05-22T23:15:52.241Z,15.10
2023-05-22T23:18:20.940Z,14.90
2023-05-22T23:20:49.652Z,15.10
2023-05-22T23:23:18.146Z,15.10
2023-05-22T23:25:48.480Z,15.10
2023-05-22T23:28:17.839Z,15.10
2023-05-22T23:30:46.867Z,15.10
2023-05-22T23:33:15.392Z,15.00
2023-05-22T23:35:44.048Z,15.00
2023-05-22T23:38:12.532Z,15.00
2023-05-22T23:40:41.321Z,15.00
2023-05-22T23:43:11.683Z,15.10
2023-05-22T23:45:40.940Z,15.10
2023-05-22T23:48:10.035Z,15.00
2023-05-22T23:50:38.694Z,14.90
2023-05-22T23:53:07.659Z,14.80
2023-05-22T23:55:36.281Z,14.80
2023-05-22T23:58:05.410Z,14.80
